Time;durP1;ratioP1;P1;durP2;ratioP2;P2;SDS_P1;SDS_P2;PMS_P1;PMS_P2;Temp;Humidity;BMP_temperature;BMP_pressure;BME280_temperature;BME280_humidity;BME280_pressure;Samples;Min_cycle;Max_cycle;Signal;HPM_P1;HPM_P2
2021/01/15 00:00:48;;;;;;;8.80;6.77;;;3.20;99.90;;;;;;4966016;28;21008;-67
2021/01/15 00:03:33;;;;;;;7.97;7.17;;;3.20;99.90;;;;;;4968835;28;20620;-67
2021/01/15 00:06:22;;;;;;;8.57;6.27;;;3.20;99.90;;;;;;4975446;28;21190;-67
2021/01/15 00:09:07;;;;;;;9.63;6.77;;;3.20;99.90;;;;;;4975478;28;20655;-67
2021/01/15 00:11:51;;;;;;;8.20;6.70;;;3.20;99.90;;;;;;4975926;28;20721;-67
2021/01/15 00:14:36;;;;;;;7.27;6.50;;;3.20;99.90;;;;;;4971155;28;21175;-67
2021/01/15 00:17:20;;;;;;;8.23;6.43;;;3.20;99.90;;;;;;4971882;28;20623;-67
2021/01/15 00:20:05;;;;;;;8.47;6.57;;;3.20;99.90;;;;;;4964242;28;20644;-67
2021/01/15 00:22:50;;;;;;;7.77;6.13;;;3.20;99.90;;;;;;4964721;28;21175;-67
2021/01/15 00:25:34;;;;;;;7.30;6.13;;;3.20;99.90;;;;;;4969565;28;21182;-67
2021/01/15 00:28:21;;;;;;;7.33;6.17;;;3.10;99.90;;;;;;4968069;28;20647;-67
2021/01/15 00:31:05;;;;;;;7.63;6.50;;;3.10;99.90;;;;;;4977837;28;20759;-69
2021/01/15 00:33:50;;;;;;;7.83;6.30;;;3.10;99.90;;;;;;4961214;28;20628;-67
2021/01/15 00:36:38;;;;;;;6.97;5.70;;;3.00;99.90;;;;;;4968160;28;20668;-67
2021/01/15 00:39:22;;;;;;;9.60;6.73;;;3.00;99.90;;;;;;4976232;28;20656;-67
2021/01/15 00:42:12;;;;;;;7.60;5.90;;;3.00;99.90;;;;;;4965681;28;20721;-67
2021/01/15 00:44:57;;;;;;;9.20;6.30;;;2.90;99.90;;;;;;4967324;28;20627;-67
2021/01/15 00:47:46;;;;;;;7.90;6.17;;;2.90;99.90;;;;;;4962611;28;20584;-67
2021/01/15 00:50:30;;;;;;;7.30;5.63;;;2.90;99.90;;;;;;4967733;28;20715;-67
2021/01/15 00:53:15;;;;;;;8.13;6.47;;;2.90;99.90;;;;;;4983441;28;20600;-67
2021/01/15 00:56:00;;;;;;;7.60;6.00;;;2.90;99.90;;;;;;4966990;28;21185;-67
2021/01/15 00:58:49;;;;;;;8.03;6.80;;;2.90;99.90;;;;;;4979395;23;20984;-68
2021/01/15 01:01:38;;;;;;;9.40;7.63;;;2.80;99.90;;;;;;4909028;28;20733;-68
2021/01/15 01:04:25;;;;;;;10.47;7.60;;;2.80;99.90;;;;;;4908230;28;20600;-68
2021/01/15 01:07:10;;;;;;;10.73;8.83;;;2.80;99.90;;;;;;4885094;28;21214;-69
2021/01/15 01:09:54;;;;;;;9.60;8.30;;;2.80;99.90;;;;;;4902005;28;20675;-69
2021/01/15 01:12:43;;;;;;;11.50;9.47;;;2.80;99.90;;;;;;4895291;28;20703;-69
2021/01/15 01:15:27;;;;;;;16.00;11.73;;;2.80;99.90;;;;;;4902029;28;20600;-68
2021/01/15 01:18:12;;;;;;;10.70;9.60;;;2.80;99.90;;;;;;4902611;28;20961;-68
2021/01/15 01:20:56;;;;;;;12.30;8.90;;;2.80;99.90;;;;;;4912253;28;20676;-68
2021/01/15 01:23:44;;;;;;;10.40;8.90;;;2.80;99.90;;;;;;4909818;28;20604;-68
2021/01/15 01:26:28;;;;;;;12.80;10.13;;;2.80;99.90;;;;;;4908920;28;20735;-68
2021/01/15 01:29:13;;;;;;;14.50;10.50;;;2.80;99.90;;;;;;4895059;28;20977;-69
2021/01/15 01:31:57;;;;;;;12.33;10.70;;;2.60;99.90;;;;;;4891929;28;20643;-68
2021/01/15 01:34:41;;;;;;;13.77;9.57;;;2.80;99.90;;;;;;4906553;29;20588;-68
2021/01/15 01:37:26;;;;;;;13.47;11.00;;;2.80;99.90;;;;;;4899909;28;20651;-68
2021/01/15 01:40:11;;;;;;;14.57;10.90;;;2.80;99.90;;;;;;4900707;28;21257;-69
2021/01/15 01:42:56;;;;;;;14.90;11.83;;;2.80;99.90;;;;;;4894652;28;20627;-68
2021/01/15 01:45:41;;;;;;;14.27;10.73;;;2.80;99.90;;;;;;4893332;28;21184;-68
2021/01/15 01:48:26;;;;;;;12.70;10.13;;;2.80;99.90;;;;;;4894457;28;21229;-68
2021/01/15 01:51:16;;;;;;;15.27;10.97;;;2.80;99.90;;;;;;4896058;28;20719;-68
2021/01/15 01:54:00;;;;;;;13.20;10.33;;;2.80;99.90;;;;;;4897401;28;20632;-69
2021/01/15 01:56:45;;;;;;;14.50;10.93;;;2.80;99.90;;;;;;4911289;28;20818;-68
2021/01/15 01:59:33;;;;;;;16.13;10.80;;;2.80;99.90;;;;;;4889056;28;20696;-69
2021/01/15 02:02:18;;;;;;;13.57;10.07;;;2.90;99.90;;;;;;4890808;28;20654;-68
2021/01/15 02:05:05;;;;;;;15.17;11.23;;;2.80;99.90;;;;;;4903103;28;20620;-68
2021/01/15 02:07:50;;;;;;;15.07;11.40;;;2.80;99.90;;;;;;4894525;28;20679;-69
2021/01/15 02:10:53;;;;;;;16.40;11.30;;;2.80;99.90;;;;;;4875699;28;21312;-68
2021/01/15 02:13:48;;;;;;;15.00;10.80;;;2.90;99.90;;;;;;4908104;28;20623;-68
2021/01/15 02:16:37;;;;;;;13.47;11.57;;;2.90;99.90;;;;;;4898793;28;21210;-69
2021/01/15 02:19:25;;;;;;;15.20;11.20;;;2.80;99.90;;;;;;4917794;28;20648;-68
2021/01/15 02:22:30;;;;;;;18.07;12.90;;;2.80;99.90;;;;;;4891834;28;20621;-68
2021/01/15 02:25:33;;;;;;;14.90;11.27;;;2.90;99.90;;;;;;4893125;28;20703;-68
2021/01/15 02:28:55;;;;;;;17.00;11.97;;;2.90;99.90;;;;;;4900000;28;20778;-68
2021/01/15 02:31:46;;;;;;;15.10;11.60;;;2.90;99.90;;;;;;4905179;28;20971;-69
2021/01/15 02:34:55;;;;;;;14.13;11.27;;;2.90;99.90;;;;;;4891354;28;20608;-69
2021/01/15 02:37:53;;;;;;;14.50;11.87;;;2.90;99.90;;;;;;4899683;28;20635;-68
2021/01/15 02:40:56;;;;;;;13.53;11.73;;;2.90;99.90;;;;;;4896204;28;20659;-68
2021/01/15 02:43:42;;;;;;;13.47;9.90;;;2.90;99.90;;;;;;4902822;28;20594;-68
2021/01/15 02:46:53;;;;;;;15.63;11.30;;;3.00;99.90;;;;;;4892766;28;20596;-68
2021/01/15 02:49:42;;;;;;;14.60;11.00;;;2.90;99.90;;;;;;4893187;28;20739;-69
2021/01/15 02:52:29;;;;;;;14.53;10.90;;;2.90;99.90;;;;;;4907150;28;20721;-69
2021/01/15 02:55:15;;;;;;;15.43;11.53;;;3.00;99.90;;;;;;4902254;28;20593;-68
2021/01/15 02:57:59;;;;;;;16.80;11.87;;;2.90;99.90;;;;;;4906195;28;20616;-68
2021/01/15 03:00:44;;;;;;;15.10;11.20;;;2.90;99.90;;;;;;4903201;28;20798;-68
2021/01/15 03:03:33;;;;;;;14.50;10.77;;;2.90;99.90;;;;;;4897504;28;20627;-68
2021/01/15 03:06:55;;;;;;;14.80;11.10;;;2.90;99.90;;;;;;4905972;28;20640;-69
2021/01/15 03:09:45;;;;;;;13.20;10.70;;;3.00;99.90;;;;;;4898539;28;20648;-69
2021/01/15 03:12:30;;;;;;;12.50;10.00;;;3.00;99.90;;;;;;4907378;28;21186;-68
2021/01/15 03:15:16;;;;;;;12.80;10.23;;;3.00;99.90;;;;;;4894382;28;20646;-68
2021/01/15 03:18:01;;;;;;;13.77;9.77;;;3.00;99.90;;;;;;4904665;28;21272;-68
2021/01/15 03:20:46;;;;;;;12.77;9.40;;;2.90;99.90;;;;;;4902453;28;20717;-68
2021/01/15 03:23:36;;;;;;;12.20;9.00;;;3.00;99.90;;;;;;4902135;28;20615;-69
2021/01/15 03:26:21;;;;;;;12.30;8.43;;;2.90;99.90;;;;;;4889775;28;20616;-68
2021/01/15 03:29:05;;;;;;;11.77;8.60;;;2.90;99.90;;;;;;4902693;28;20656;-69
2021/01/15 03:31:50;;;;;;;10.20;8.20;;;2.90;99.90;;;;;;4898203;28;20628;-68
2021/01/15 03:34:36;;;;;;;10.97;7.67;;;2.90;99.90;;;;;;4898398;28;21102;-68
2021/01/15 03:37:23;;;;;;;11.00;7.67;;;2.90;99.90;;;;;;4909118;28;20627;-68
2021/01/15 03:40:08;;;;;;;9.77;8.23;;;2.90;99.90;;;;;;4916874;28;20686;-67
2021/01/15 03:42:56;;;;;;;11.93;8.70;;;2.90;99.90;;;;;;4904867;28;20620;-68
2021/01/15 03:45:42;;;;;;;11.53;7.73;;;2.90;99.90;;;;;;4894707;28;20734;-68
2021/01/15 03:48:27;;;;;;;11.63;7.30;;;2.90;99.90;;;;;;4896929;28;20669;-68
2021/01/15 03:51:12;;;;;;;9.93;7.40;;;2.90;99.90;;;;;;4893894;28;20651;-68
2021/01/15 03:53:56;;;;;;;8.63;6.93;;;2.90;99.90;;;;;;4899414;28;20627;-67
2021/01/15 03:56:43;;;;;;;7.10;6.13;;;2.90;99.90;;;;;;4912836;28;21363;-68
2021/01/15 03:59:28;;;;;;;12.00;7.30;;;2.90;99.90;;;;;;4906138;28;20670;-69
2021/01/15 04:02:12;;;;;;;11.60;7.70;;;2.90;99.90;;;;;;4880285;28;20672;-69
2021/01/15 04:04:57;;;;;;;9.00;6.80;;;2.90;99.90;;;;;;4867757;28;20600;-69
2021/01/15 04:07:45;;;;;;;10.17;7.20;;;2.90;99.90;;;;;;4862299;28;20956;-69
2021/01/15 04:10:30;;;;;;;9.57;6.97;;;2.90;99.90;;;;;;4865934;28;21358;-69
2021/01/15 04:13:15;;;;;;;8.83;6.60;;;2.90;99.90;;;;;;4869665;28;21202;-68
2021/01/15 04:15:59;;;;;;;10.83;7.70;;;2.90;99.90;;;;;;4867859;28;21040;-68
2021/01/15 04:18:43;;;;;;;10.50;7.07;;;2.90;99.90;;;;;;4867134;28;21541;-68
2021/01/15 04:21:28;;;;;;;9.77;6.93;;;2.90;99.90;;;;;;4876809;28;21281;-68
2021/01/15 04:24:15;;;;;;;9.83;7.03;;;2.90;99.90;;;;;;4877774;28;20663;-69
2021/01/15 04:27:00;;;;;;;10.70;7.50;;;2.90;99.90;;;;;;4881547;28;20690;-68
2021/01/15 04:29:44;;;;;;;11.10;7.33;;;2.90;99.90;;;;;;4878913;28;20644;-69
2021/01/15 04:32:30;;;;;;;9.43;6.87;;;2.90;99.90;;;;;;4865419;28;20966;-69
2021/01/15 04:35:17;;;;;;;9.33;6.83;;;2.90;99.90;;;;;;4874388;28;20755;-68
2021/01/15 04:38:01;;;;;;;7.57;5.97;;;2.90;99.90;;;;;;4906824;29;20600;-67
2021/01/15 04:40:46;;;;;;;9.37;7.17;;;2.90;99.90;;;;;;4889292;28;20830;-69
2021/01/15 04:43:32;;;;;;;8.30;6.63;;;2.90;99.90;;;;;;4898175;28;20667;-68
2021/01/15 04:46:23;;;;;;;6.90;5.80;;;2.90;99.90;;;;;;4887241;28;20902;-69
2021/01/15 04:49:12;;;;;;;7.83;6.23;;;2.90;99.90;;;;;;4863646;28;20768;-69
2021/01/15 04:52:01;;;;;;;9.07;7.00;;;2.80;99.90;;;;;;4881953;28;20754;-70
2021/01/15 04:54:57;;;;;;;8.43;6.50;;;2.90;99.90;;;;;;4894018;28;20652;-68
2021/01/15 04:57:43;;;;;;;8.40;6.53;;;2.80;99.90;;;;;;4888621;28;20730;-69
2021/01/15 05:00:27;;;;;;;8.67;6.90;;;2.80;99.90;;;;;;4882712;28;21266;-68
2021/01/15 05:03:14;;;;;;;8.73;6.77;;;2.80;99.90;;;;;;4905274;28;20776;-67
2021/01/15 05:06:07;;;;;;;7.97;6.43;;;2.70;99.90;;;;;;4883255;28;20722;-69
2021/01/15 05:08:56;;;;;;;8.93;6.80;;;2.80;99.90;;;;;;4894230;28;20854;-69
2021/01/15 05:11:43;;;;;;;7.87;6.70;;;2.70;99.90;;;;;;4898372;28;20817;-68
2021/01/15 05:14:27;;;;;;;9.73;6.43;;;2.70;99.90;;;;;;4895230;28;21057;-69
2021/01/15 05:17:12;;;;;;;7.00;6.00;;;2.70;99.90;;;;;;4924797;28;20675;-68
2021/01/15 05:19:58;;;;;;;8.20;6.60;;;2.70;99.90;;;;;;4893258;28;20672;-67
2021/01/15 05:22:43;;;;;;;10.07;6.30;;;2.70;99.90;;;;;;4922725;28;21068;-68
2021/01/15 05:25:29;;;;;;;9.17;6.73;;;2.60;99.90;;;;;;4895558;28;20768;-69
2021/01/15 05:28:24;;;;;;;7.93;6.37;;;2.60;99.90;;;;;;4904669;28;21197;-68
2021/01/15 05:31:08;;;;;;;9.93;7.10;;;2.60;99.90;;;;;;4890063;28;20651;-69
2021/01/15 05:34:07;;;;;;;8.53;7.37;;;2.60;99.90;;;;;;4898106;28;20617;-68
2021/01/15 05:36:53;;;;;;;8.97;6.97;;;2.70;99.90;;;;;;4896787;28;20786;-69
2021/01/15 05:39:45;;;;;;;7.90;6.50;;;2.60;99.90;;;;;;4906869;28;20647;-68
2021/01/15 05:42:30;;;;;;;9.23;7.10;;;2.70;99.90;;;;;;4909691;28;20927;-68
2021/01/15 05:45:16;;;;;;;9.83;7.87;;;2.70;99.90;;;;;;4895650;28;20620;-68
2021/01/15 05:48:04;;;;;;;10.80;7.33;;;2.70;99.90;;;;;;4886093;28;20636;-68
2021/01/15 05:50:51;;;;;;;10.53;7.83;;;2.70;99.90;;;;;;4904507;28;20783;-68
2021/01/15 05:53:43;;;;;;;10.30;8.03;;;2.70;99.90;;;;;;4902581;28;20609;-68
2021/01/15 05:56:40;;;;;;;10.23;7.80;;;2.60;99.90;;;;;;4913460;28;20636;-68
2021/01/15 05:59:26;;;;;;;9.97;7.40;;;2.70;99.90;;;;;;4895019;28;20826;-67
2021/01/15 06:02:12;;;;;;;10.60;7.93;;;2.80;99.90;;;;;;4895040;28;20730;-68
2021/01/15 06:04:57;;;;;;;10.43;8.50;;;2.60;99.90;;;;;;4890064;28;20640;-68
2021/01/15 06:07:42;;;;;;;10.03;7.80;;;2.60;99.90;;;;;;4910424;28;20663;-68
2021/01/15 06:10:33;;;;;;;11.10;7.73;;;2.50;99.90;;;;;;4895291;28;20652;-67
2021/01/15 06:13:39;;;;;;;11.70;7.40;;;2.50;99.90;;;;;;4904801;28;20617;-67
2021/01/15 06:16:23;;;;;;;12.40;8.07;;;2.50;99.90;;;;;;4896058;28;21230;-68
2021/01/15 06:19:08;;;;;;;11.10;8.13;;;2.60;99.90;;;;;;4901004;28;20764;-69
2021/01/15 06:22:05;;;;;;;10.33;8.37;;;2.60;99.90;;;;;;4887539;28;20756;-68
2021/01/15 06:25:04;;;;;;;9.50;7.70;;;2.60;99.90;;;;;;4899265;28;20721;-68
2021/01/15 06:27:55;;;;;;;9.30;7.57;;;2.60;99.90;;;;;;4887570;28;20628;-69
2021/01/15 06:30:40;;;;;;;14.20;8.47;;;2.50;99.90;;;;;;4897648;28;21433;-69
2021/01/15 06:33:24;;;;;;;12.00;8.53;;;2.50;99.90;;;;;;4899240;28;20627;-69
2021/01/15 06:36:09;;;;;;;11.33;8.67;;;2.50;99.90;;;;;;4899439;28;20607;-68
2021/01/15 06:38:54;;;;;;;9.90;8.67;;;2.50;99.90;;;;;;4900631;28;20648;-68
2021/01/15 06:41:41;;;;;;;11.80;8.50;;;2.50;99.90;;;;;;4896345;28;20659;-69
2021/01/15 06:44:26;;;;;;;9.90;8.13;;;2.60;99.90;;;;;;4879282;28;20620;-71
2021/01/15 06:47:21;;;;;;;10.97;8.23;;;2.50;99.90;;;;;;4873910;28;20600;-71
2021/01/15 06:50:15;;;;;;;10.20;8.17;;;2.50;99.90;;;;;;4860062;28;20684;-69
2021/01/15 06:53:17;;;;;;;9.20;7.60;;;2.60;99.90;;;;;;4859708;28;20996;-70
2021/01/15 06:56:04;;;;;;;9.93;8.23;;;2.50;99.90;;;;;;4871574;28;20666;-69
2021/01/15 06:58:55;;;;;;;11.50;7.80;;;2.50;99.90;;;;;;4843535;28;20668;-70
2021/01/15 07:02:08;;;;;;;9.93;7.90;;;2.50;99.90;;;;;;4859234;28;21385;-70
2021/01/15 07:05:05;;;;;;;10.27;9.20;;;2.50;99.90;;;;;;4914261;23;20723;-66
2021/01/15 07:07:51;;;;;;;10.20;7.80;;;2.40;99.90;;;;;;4979890;28;20652;-67
2021/01/15 07:10:36;;;;;;;10.47;8.50;;;2.30;99.90;;;;;;4940010;28;20706;-66
2021/01/15 07:13:30;;;;;;;11.27;8.47;;;2.30;99.90;;;;;;4956373;28;20706;-68
2021/01/15 07:16:33;;;;;;;11.60;8.47;;;2.30;99.90;;;;;;4918252;28;20605;-68
2021/01/15 07:19:20;;;;;;;11.90;8.50;;;2.30;99.90;;;;;;4906120;28;20605;-67
2021/01/15 07:22:10;;;;;;;10.70;8.07;;;2.20;99.90;;;;;;4926386;28;20667;-67
2021/01/15 07:24:57;;;;;;;11.73;8.77;;;2.10;99.90;;;;;;4925472;28;20759;-67
2021/01/15 07:27:42;;;;;;;11.30;8.60;;;2.10;99.90;;;;;;4920112;28;21043;-68
2021/01/15 07:30:28;;;;;;;11.00;8.80;;;2.10;99.90;;;;;;4929361;28;20692;-67
2021/01/15 07:33:14;;;;;;;11.60;8.00;;;2.20;99.90;;;;;;4920206;28;20684;-67
2021/01/15 07:35:59;;;;;;;11.33;9.17;;;2.20;99.90;;;;;;4908887;28;21330;-68
2021/01/15 07:39:10;;;;;;;11.70;8.53;;;2.20;99.90;;;;;;4906066;28;21904;-69
2021/01/15 07:41:55;;;;;;;13.10;8.87;;;2.30;99.90;;;;;;4910614;28;20681;-67
2021/01/15 07:44:39;;;;;;;13.33;9.43;;;2.20;99.90;;;;;;4916807;28;21253;-68
2021/01/15 07:47:24;;;;;;;14.57;10.60;;;2.30;99.90;;;;;;4921486;28;20597;-68
2021/01/15 07:50:10;;;;;;;13.50;10.00;;;2.20;99.90;;;;;;4913137;28;21298;-67
2021/01/15 07:53:00;;;;;;;12.30;9.00;;;2.30;99.90;;;;;;4919572;28;21238;-66
2021/01/15 07:55:54;;;;;;;12.57;8.73;;;2.30;99.90;;;;;;4936885;28;20673;-67
2021/01/15 07:58:42;;;;;;;12.20;9.83;;;2.30;99.90;;;;;;4932635;28;20685;-67
2021/01/15 08:01:27;;;;;;;12.23;9.00;;;2.30;99.90;;;;;;4929985;28;20665;-67
2021/01/15 08:04:16;;;;;;;13.00;9.63;;;2.20;99.90;;;;;;4915492;28;21307;-68
2021/01/15 08:07:39;;;;;;;13.33;9.40;;;2.20;99.90;;;;;;4916688;28;20851;-68
2021/01/15 08:10:24;;;;;;;12.63;9.43;;;2.30;99.90;;;;;;4909207;28;20665;-69
2021/01/15 08:13:17;;;;;;;15.40;10.03;;;2.10;99.90;;;;;;4915078;28;21283;-67
2021/01/15 08:16:06;;;;;;;14.30;9.50;;;2.10;99.90;;;;;;4926018;28;20708;-68
2021/01/15 08:18:50;;;;;;;14.17;8.70;;;2.10;99.90;;;;;;4919334;28;21176;-68
2021/01/15 08:21:36;;;;;;;14.43;9.53;;;2.10;99.90;;;;;;4911607;28;21154;-68
2021/01/15 08:24:22;;;;;;;14.73;9.87;;;2.10;99.90;;;;;;4913052;28;20704;-69
2021/01/15 08:27:18;;;;;;;13.57;10.10;;;2.10;99.90;;;;;;4923706;28;21165;-68
2021/01/15 08:30:04;;;;;;;14.67;10.20;;;2.10;99.90;;;;;;4933649;28;20705;-67
2021/01/15 08:32:49;;;;;;;16.90;9.73;;;2.10;99.90;;;;;;4914167;28;20660;-68
2021/01/15 08:35:34;;;;;;;13.20;9.20;;;2.10;99.90;;;;;;4928055;28;20744;-68
2021/01/15 08:38:31;;;;;;;14.10;9.83;;;2.00;99.90;;;;;;4925869;28;20586;-69
2021/01/15 08:41:23;;;;;;;13.43;10.23;;;1.90;99.90;;;;;;4951602;28;20661;-68
2021/01/15 08:44:09;;;;;;;16.23;10.00;;;1.90;99.90;;;;;;4958440;28;20660;-68
2021/01/15 08:46:54;;;;;;;13.30;10.20;;;1.90;99.90;;;;;;4950972;28;20589;-67
2021/01/15 08:49:40;;;;;;;14.87;10.17;;;1.90;99.90;;;;;;4948228;28;20641;-68
2021/01/15 08:52:29;;;;;;;13.13;9.77;;;1.90;99.90;;;;;;4950611;28;20593;-67
2021/01/15 08:55:15;;;;;;;13.57;9.50;;;1.90;99.90;;;;;;4950517;28;20682;-67
2021/01/15 08:58:04;;;;;;;15.33;10.33;;;2.00;99.90;;;;;;4948747;28;20701;-68
2021/01/15 09:00:48;;;;;;;14.13;10.03;;;2.00;99.90;;;;;;4970768;28;20641;-68
2021/01/15 09:03:33;;;;;;;14.40;9.93;;;2.00;99.90;;;;;;4955283;28;21202;-68
2021/01/15 09:06:22;;;;;;;14.60;9.97;;;1.90;99.90;;;;;;4945069;28;20629;-68
2021/01/15 09:09:09;;;;;;;15.20;9.83;;;1.90;99.90;;;;;;4943668;28;20644;-68
2021/01/15 09:11:54;;;;;;;14.40;9.80;;;1.90;99.90;;;;;;4936853;28;21303;-68
2021/01/15 09:14:39;;;;;;;11.90;8.93;;;1.90;99.90;;;;;;4961077;28;20688;-65
2021/01/15 09:17:26;;;;;;;13.60;10.17;;;1.90;99.90;;;;;;4957369;28;21176;-74
2021/01/15 09:20:11;;;;;;;12.23;9.00;;;2.00;99.90;;;;;;4956296;28;21005;-66
2021/01/15 09:22:55;;;;;;;13.53;9.40;;;2.00;99.90;;;;;;4963448;28;20958;-68
2021/01/15 09:25:40;;;;;;;12.47;9.47;;;2.00;99.90;;;;;;4948408;28;20748;-68
2021/01/15 09:28:24;;;;;;;13.80;10.20;;;2.00;99.90;;;;;;4938126;28;20637;-74
2021/01/15 09:31:08;;;;;;;13.53;9.57;;;2.00;99.90;;;;;;4918993;28;20915;-69
2021/01/15 09:33:53;;;;;;;13.00;9.30;;;2.00;99.90;;;;;;4937509;28;20824;-74
2021/01/15 09:36:41;;;;;;;13.73;9.77;;;2.00;99.90;;;;;;4918695;28;20796;-70
2021/01/15 09:39:29;;;;;;;13.20;10.23;;;2.10;99.90;;;;;;4942497;28;20625;-68
2021/01/15 09:42:14;;;;;;;12.87;9.30;;;2.10;99.90;;;;;;4971321;28;20632;-71
2021/01/15 09:44:58;;;;;;;14.07;10.10;;;2.10;99.90;;;;;;4947791;28;20753;-67
2021/01/15 09:47:45;;;;;;;13.23;9.33;;;2.10;99.90;;;;;;4968888;28;20752;-70
2021/01/15 09:50:29;;;;;;;11.87;9.00;;;2.10;99.90;;;;;;4935911;28;21037;-69
2021/01/15 09:53:14;;;;;;;15.03;10.23;;;2.20;99.90;;;;;;4933886;28;21371;-68
2021/01/15 09:55:58;;;;;;;15.90;11.10;;;2.20;99.90;;;;;;4947347;28;21036;-70
2021/01/15 09:58:43;;;;;;;12.70;9.93;;;2.10;99.90;;;;;;4952980;28;21099;-70
2021/01/15 10:01:28;;;;;;;11.33;9.23;;;2.10;99.90;;;;;;4937333;28;21204;-67
2021/01/15 10:04:14;;;;;;;12.10;9.00;;;2.10;99.90;;;;;;4909997;28;20684;-66
2021/01/15 10:06:59;;;;;;;13.10;10.47;;;2.10;99.90;;;;;;4933041;28;20710;-66
2021/01/15 10:09:43;;;;;;;13.53;9.43;;;2.10;99.90;;;;;;4914432;28;20645;-70
2021/01/15 10:12:28;;;;;;;14.90;9.83;;;2.20;99.90;;;;;;4912838;28;23710;-68
2021/01/15 10:15:13;;;;;;;12.63;8.87;;;2.10;99.90;;;;;;4954565;28;21002;-67
2021/01/15 10:17:58;;;;;;;13.13;9.40;;;2.10;99.90;;;;;;4954514;28;21030;-68
2021/01/15 10:20:45;;;;;;;12.43;8.60;;;2.10;99.90;;;;;;4965985;28;20641;-67
2021/01/15 10:23:30;;;;;;;11.70;8.30;;;2.10;99.90;;;;;;4961631;28;20992;-68
2021/01/15 10:26:27;;;;;;;12.47;8.47;;;2.00;99.90;;;;;;4961187;28;20810;-70
2021/01/15 10:29:14;;;;;;;11.17;8.33;;;1.90;99.90;;;;;;4964630;28;20689;-70
2021/01/15 10:31:58;;;;;;;12.33;8.93;;;2.00;99.90;;;;;;4950188;28;20645;-67
2021/01/15 10:34:43;;;;;;;12.70;8.77;;;2.00;99.90;;;;;;4964971;28;21210;-68
2021/01/15 10:37:27;;;;;;;11.13;8.30;;;2.00;99.90;;;;;;4954546;28;20716;-66
2021/01/15 10:40:12;;;;;;;12.67;8.77;;;2.00;99.90;;;;;;4946049;28;20742;-66
2021/01/15 10:42:57;;;;;;;10.13;7.93;;;2.10;99.90;;;;;;4966573;28;20653;-67
2021/01/15 10:45:41;;;;;;;10.60;7.93;;;2.10;99.90;;;;;;4964564;28;20655;-66
2021/01/15 10:48:26;;;;;;;12.83;9.10;;;2.10;99.90;;;;;;4955960;28;20585;-65
2021/01/15 10:51:10;;;;;;;12.57;8.63;;;2.00;99.90;;;;;;4948468;28;20673;-67
2021/01/15 10:53:55;;;;;;;13.37;7.90;;;2.00;99.90;;;;;;4965312;28;20648;-67
2021/01/15 10:56:51;;;;;;;9.20;7.43;;;1.90;99.90;;;;;;4974289;28;20622;-67
2021/01/15 10:59:38;;;;;;;11.30;7.60;;;1.90;99.90;;;;;;4952738;28;20757;-66
2021/01/15 11:02:23;;;;;;;9.20;7.30;;;1.90;99.90;;;;;;4968898;28;20988;-67
2021/01/15 11:05:08;;;;;;;11.97;7.63;;;1.90;99.90;;;;;;4980782;28;20764;-67
2021/01/15 11:07:53;;;;;;;10.17;7.47;;;1.90;99.90;;;;;;4962529;28;20621;-66
2021/01/15 11:10:37;;;;;;;11.83;8.50;;;1.90;99.90;;;;;;4957731;28;20992;-67
2021/01/15 11:13:22;;;;;;;12.37;8.87;;;2.00;99.90;;;;;;4962433;28;20684;-67
2021/01/15 11:16:11;;;;;;;13.20;8.77;;;1.90;99.90;;;;;;4961131;28;20685;-67
2021/01/15 11:18:56;;;;;;;10.67;8.50;;;2.00;99.90;;;;;;4951475;28;20819;-67
2021/01/15 11:21:40;;;;;;;10.90;7.93;;;1.90;99.90;;;;;;4948290;28;20653;-67
2021/01/15 11:24:25;;;;;;;12.03;8.07;;;1.90;99.90;;;;;;4960521;28;20664;-70
2021/01/15 11:27:09;;;;;;;13.30;7.97;;;2.00;99.90;;;;;;4964446;28;20608;-69
2021/01/15 11:29:55;;;;;;;10.77;7.60;;;1.90;99.90;;;;;;4966485;28;20629;-69
2021/01/15 11:32:40;;;;;;;10.30;7.63;;;2.00;99.90;;;;;;4953340;28;20644;-67
2021/01/15 11:35:25;;;;;;;10.73;8.10;;;2.00;99.90;;;;;;4950609;28;20644;-69
2021/01/15 11:38:09;;;;;;;11.63;7.93;;;1.90;99.90;;;;;;4959709;28;20630;-71
2021/01/15 11:40:54;;;;;;;9.03;6.80;;;2.00;99.90;;;;;;4951708;28;20650;-66
2021/01/15 11:43:39;;;;;;;8.60;6.90;;;2.00;99.90;;;;;;4965291;28;20743;-67
2021/01/15 11:46:24;;;;;;;9.93;7.47;;;2.00;99.90;;;;;;4962149;28;21163;-67
2021/01/15 11:49:08;;;;;;;10.00;7.40;;;2.00;99.90;;;;;;4954810;28;20667;-67
2021/01/15 11:51:57;;;;;;;10.37;6.93;;;2.00;99.90;;;;;;4938719;28;21310;-65
2021/01/15 11:54:43;;;;;;;9.00;7.27;;;2.00;99.90;;;;;;4937186;28;20665;-66
2021/01/15 11:57:30;;;;;;;9.17;6.53;;;2.00;99.90;;;;;;4926565;28;21014;-66
2021/01/15 12:00:15;;;;;;;10.47;7.50;;;2.00;99.90;;;;;;4919115;28;20760;-66
2021/01/15 12:03:02;;;;;;;8.97;6.53;;;2.10;99.90;;;;;;4912468;28;20625;-70
2021/01/15 12:05:49;;;;;;;9.63;6.90;;;2.10;99.90;;;;;;4950162;28;20990;-69
2021/01/15 12:08:33;;;;;;;10.57;7.17;;;2.10;99.90;;;;;;4949126;28;20985;-69
2021/01/15 12:11:18;;;;;;;9.50;7.20;;;2.10;99.90;;;;;;4947325;28;21254;-69
2021/01/15 12:14:03;;;;;;;8.30;6.27;;;2.20;99.90;;;;;;4955910;28;20705;-68
2021/01/15 12:16:47;;;;;;;10.80;7.23;;;2.20;99.90;;;;;;4951941;28;20585;-69
2021/01/15 12:19:32;;;;;;;9.07;6.77;;;2.10;99.90;;;;;;4964646;28;21050;-69
2021/01/15 12:22:17;;;;;;;8.40;6.37;;;2.10;99.90;;;;;;4961596;28;20773;-68
2021/01/15 12:25:01;;;;;;;7.70;5.70;;;2.10;99.90;;;;;;4945273;28;20769;-69
2021/01/15 12:27:46;;;;;;;9.20;6.13;;;2.10;99.90;;;;;;4952139;28;20836;-68
2021/01/15 12:30:30;;;;;;;7.43;6.40;;;2.10;99.90;;;;;;4947173;28;24519;-69
2021/01/15 12:33:16;;;;;;;7.97;6.23;;;2.10;99.90;;;;;;4949026;28;20585;-69
2021/01/15 12:36:00;;;;;;;8.77;6.73;;;2.10;99.90;;;;;;4947981;28;20653;-68
2021/01/15 12:38:45;;;;;;;7.40;5.77;;;2.00;99.90;;;;;;4972071;28;20770;-69
2021/01/15 12:41:30;;;;;;;7.23;5.90;;;2.00;99.90;;;;;;4952724;28;20729;-69
2021/01/15 12:44:15;;;;;;;9.53;6.40;;;1.90;99.90;;;;;;4958053;28;20673;-69
2021/01/15 12:47:01;;;;;;;7.10;5.20;;;1.90;99.90;;;;;;4958329;28;20621;-68
2021/01/15 12:49:45;;;;;;;8.13;5.33;;;2.00;99.90;;;;;;4944752;28;20716;-69
2021/01/15 12:52:30;;;;;;;7.23;5.30;;;1.90;99.90;;;;;;4950732;28;20697;-69
2021/01/15 12:55:14;;;;;;;8.33;5.90;;;1.90;99.90;;;;;;4962716;28;20774;-70
2021/01/15 12:58:00;;;;;;;8.30;6.20;;;1.90;99.90;;;;;;4986827;28;20629;-70
2021/01/15 13:00:47;;;;;;;6.00;5.07;;;1.90;99.90;;;;;;4959797;28;20647;-69
2021/01/15 13:03:31;;;;;;;7.23;5.60;;;1.90;99.90;;;;;;4966916;28;20954;-70
2021/01/15 13:06:15;;;;;;;8.00;5.70;;;1.80;99.90;;;;;;4991345;22;20719;-68
2021/01/15 13:09:06;;;;;;;6.00;5.20;;;1.90;99.90;;;;;;5002045;28;20615;-68
2021/01/15 13:11:51;;;;;;;7.00;4.93;;;1.90;99.90;;;;;;5025138;28;20650;-68
2021/01/15 13:14:38;;;;;;;7.47;5.67;;;1.90;99.90;;;;;;5009430;28;20638;-69
2021/01/15 13:17:23;;;;;;;6.73;5.30;;;1.80;99.90;;;;;;4987888;28;20655;-68
2021/01/15 13:20:08;;;;;;;9.50;6.30;;;1.80;99.90;;;;;;4998359;28;20895;-68
2021/01/15 13:23:07;;;;;;;7.60;5.50;;;1.80;99.90;;;;;;4997590;28;21023;-68
2021/01/15 13:25:51;;;;;;;6.30;5.30;;;1.70;99.90;;;;;;4992978;28;20637;-67
2021/01/15 13:28:36;;;;;;;7.93;5.47;;;1.60;99.90;;;;;;4987180;28;20746;-68
2021/01/15 13:31:20;;;;;;;7.90;5.57;;;1.60;99.90;;;;;;4980764;28;20822;-68
2021/01/15 13:34:05;;;;;;;6.93;5.00;;;1.60;99.90;;;;;;4998669;28;20628;-68
2021/01/15 13:36:50;;;;;;;7.80;5.50;;;1.60;99.90;;;;;;5000747;28;20643;-68
2021/01/15 13:39:34;;;;;;;7.83;5.77;;;1.70;99.90;;;;;;5002132;28;21481;-67
2021/01/15 13:42:19;;;;;;;7.70;5.37;;;1.70;99.90;;;;;;4985165;28;20631;-67
2021/01/15 13:45:05;;;;;;;6.43;5.67;;;1.80;99.90;;;;;;4981672;28;20603;-66
2021/01/15 13:47:53;;;;;;;8.87;5.40;;;1.80;99.90;;;;;;4982853;28;20785;-67
2021/01/15 13:50:45;;;;;;;6.37;5.23;;;1.80;99.90;;;;;;4990419;28;20672;-67
2021/01/15 13:53:32;;;;;;;5.80;5.00;;;1.80;99.90;;;;;;4979123;28;22293;-67
2021/01/15 13:56:17;;;;;;;5.90;4.97;;;1.90;99.90;;;;;;4971681;28;21265;-67
2021/01/15 13:59:05;;;;;;;6.73;3.90;;;1.80;99.90;;;;;;4944074;28;22781;-65
2021/01/15 14:01:49;;;;;;;5.13;3.50;;;1.70;99.90;;;;;;4962153;28;20757;-64
2021/01/15 14:04:34;;;;;;;4.33;3.53;;;1.70;99.90;;;;;;4967975;28;20647;-66
2021/01/15 14:07:19;;;;;;;3.97;3.50;;;1.70;99.90;;;;;;4962720;28;20670;-66
2021/01/15 14:10:05;;;;;;;4.57;3.57;;;1.70;99.90;;;;;;4962356;28;20653;-66
2021/01/15 14:12:51;;;;;;;5.80;3.17;;;1.70;99.90;;;;;;4976419;28;20607;-67
2021/01/15 14:15:37;;;;;;;3.33;3.03;;;1.70;99.90;;;;;;4989070;28;20665;-65
2021/01/15 14:18:21;;;;;;;3.50;3.20;;;1.70;99.90;;;;;;4984838;28;21013;-64
2021/01/15 14:21:05;;;;;;;6.53;3.57;;;1.70;99.90;;;;;;4983781;28;21083;-69
2021/01/15 14:23:50;;;;;;;4.63;3.13;;;1.60;99.90;;;;;;4983095;28;21277;-69
2021/01/15 14:26:39;;;;;;;4.17;3.63;;;1.60;99.90;;;;;;4980957;28;20662;-66
2021/01/15 14:29:23;;;;;;;3.47;3.17;;;1.60;99.90;;;;;;4984255;28;21213;-67
2021/01/15 14:32:10;;;;;;;4.60;3.73;;;1.60;99.90;;;;;;4998037;28;21243;-67